createdAt,value
2023-01-18T02:32:34.438Z,92322.00
2023-01-18T02:33:34.410Z,92322.00
2023-01-18T02:34:34.356Z,92320.00
2023-01-18T02:35:34.310Z,92324.00
2023-01-18T02:36:34.258Z,92324.00
2023-01-18T02:37:34.222Z,92322.00
2023-01-18T02:38:34.168Z,92322.00
2023-01-18T02:39:34.116Z,92324.00
2023-01-18T02:40:34.071Z,92322.00
2023-01-18T02:41:34.023Z,92324.00
2023-01-18T02:42:33.969Z,92322.00
2023-01-18T02:43:33.921Z,92324.00
2023-01-18T02:44:33.877Z,92320.00
2023-01-18T02:45:35.898Z,92324.00
2023-01-18T02:46:34.036Z,92322.00
2023-01-18T02:47:33.754Z,92324.00
2023-01-18T02:48:33.690Z,92324.00
2023-01-18T02:49:33.641Z,92322.00
2023-01-18T02:50:33.583Z,92324.00
2023-01-18T02:51:33.543Z,92324.00
2023-01-18T02:52:33.476Z,92324.00
2023-01-18T02:53:33.423Z,92326.00
2023-01-18T02:54:33.369Z,92326.00
2023-01-18T02:55:33.327Z,92326.00
2023-01-18T03:24:31.910Z,92357.00
2023-01-18T03:25:31.846Z,92357.00
2023-01-18T03:26:31.858Z,92357.00
2023-01-18T03:27:31.771Z,92357.00
2023-01-18T03:28:31.780Z,92357.00
2023-01-18T03:29:31.683Z,92355.00
2023-01-18T03:30:31.628Z,92355.00
2023-01-18T03:31:31.597Z,92357.00
2023-01-18T03:32:31.534Z,92357.00
2023-01-18T03:33:31.487Z,92361.00
2023-01-18T03:34:31.452Z,92359.00
2023-01-18T03:35:31.426Z,92363.00
2023-01-18T03:36:31.361Z,92365.00
2023-01-18T03:37:31.296Z,92367.00
2023-01-18T03:38:31.250Z,92367.00
2023-01-18T03:39:31.210Z,92371.00
2023-01-18T03:40:31.175Z,92371.00
2023-01-18T03:41:31.127Z,92371.00
2023-01-18T03:42:31.052Z,92371.00
2023-01-18T03:43:31.003Z,92371.00
2023-01-18T03:44:30.955Z,92371.00
2023-01-18T03:45:30.910Z,92371.00
2023-01-18T03:46:30.907Z,92373.00
2023-01-18T03:47:30.811Z,92371.00
2023-01-18T03:48:30.766Z,92371.00
2023-01-18T03:49:30.724Z,92371.00
2023-01-18T03:50:30.676Z,92369.00
2023-01-18T03:51:30.665Z,92371.00
2023-01-18T03:52:30.584Z,92371.00
2023-01-18T03:53:30.540Z,92369.00
2023-01-18T03:54:30.497Z,92371.00
2023-01-18T03:55:30.450Z,92369.00
2023-01-18T03:56:30.407Z,92373.00
2023-01-18T03:57:30.357Z,92375.00
2023-01-18T03:58:30.301Z,92373.00
2023-01-18T03:59:30.255Z,92375.00
2023-01-18T04:00:30.193Z,92377.00
2023-01-18T04:01:30.286Z,92381.00
2023-01-18T04:02:30.112Z,92381.00
2023-01-18T04:03:30.032Z,92381.00
2023-01-18T04:04:29.982Z,92381.00
2023-01-18T04:05:29.935Z,92385.00
2023-01-18T04:06:29.876Z,92385.00
2023-01-18T04:07:29.851Z,92385.00
2023-01-18T04:08:29.767Z,92383.00
2023-01-18T04:09:29.719Z,92383.00
2023-01-18T04:10:29.660Z,92379.00
2023-01-18T04:11:29.619Z,92383.00
2023-01-18T04:12:29.558Z,92383.00
2023-01-18T04:13:29.503Z,92381.00
2023-01-18T04:14:29.450Z,92381.00
2023-01-18T04:15:29.399Z,92385.00
2023-01-18T04:16:29.346Z,92381.00
2023-01-18T04:17:29.289Z,92383.00
2023-01-18T04:18:29.243Z,92379.00
2023-01-18T04:19:29.204Z,92381.00
2023-01-18T04:20:29.136Z,92381.00
2023-01-18T04:21:29.082Z,92381.00
2023-01-18T04:22:29.041Z,92381.00
2023-01-18T04:23:29.012Z,92381.00
2023-01-18T04:24:28.926Z,92383.00
2023-01-18T04:25:28.869Z,92383.00
2023-01-18T04:26:28.822Z,92383.00
2023-01-18T04:27:28.755Z,92385.00
2023-01-18T04:28:28.700Z,92385.00
2023-01-18T04:29:28.647Z,92385.00
2023-01-18T04:30:28.591Z,92385.00
2023-01-18T04:31:28.587Z,92385.00
2023-01-18T04:32:28.467Z,92385.00
2023-01-18T04:33:28.427Z,92385.00
2023-01-18T04:34:28.360Z,92385.00
2023-01-18T04:35:28.299Z,92387.00
2023-01-18T04:36:28.261Z,92387.00
2023-01-18T04:37:28.185Z,92387.00
2023-01-18T04:38:28.144Z,92388.00
2023-01-18T04:39:28.122Z,92387.00
2023-01-18T04:40:28.033Z,92387.00
2023-01-18T04:41:27.977Z,92388.00
2023-01-18T04:42:27.917Z,92387.00
2023-01-18T04:43:27.866Z,92387.00
2023-01-18T04:44:27.811Z,92388.00
2023-01-18T04:45:27.769Z,92390.00
2023-01-18T04:46:27.728Z,92388.00
2023-01-18T04:47:27.655Z,92390.00
2023-01-18T04:48:27.604Z,92390.00
2023-01-18T04:49:27.551Z,92392.00
2023-01-18T04:50:27.496Z,92392.00
2023-01-18T04:51:27.451Z,92394.00
2023-01-18T04:52:27.394Z,92392.00
2023-01-18T04:53:27.335Z,92394.00
2023-01-18T04:54:27.281Z,92392.00
2023-01-18T04:55:27.254Z,92392.00
2023-01-18T04:56:27.191Z,92396.00
2023-01-18T04:57:27.162Z,92394.00
2023-01-18T04:58:27.083Z,92396.00
2023-01-18T04:59:27.051Z,92400.00
2023-01-18T05:00:27.042Z,92398.00
2023-01-18T05:01:27.075Z,92402.00
2023-01-18T05:02:27.005Z,92406.00
2023-01-18T05:03:26.853Z,92406.00
2023-01-18T05:04:26.822Z,92402.00
2023-01-18T05:05:26.755Z,92402.00
2023-01-18T05:06:26.743Z,92404.00
2023-01-18T05:07:26.671Z,92404.00
2023-01-18T05:08:26.617Z,92406.00
2023-01-18T05:09:26.562Z,92408.00
2023-01-18T05:10:26.515Z,92408.00
2023-01-18T05:11:26.487Z,92408.00
2023-01-18T05:12:26.444Z,92410.00
2023-01-18T05:13:26.359Z,92410.00
2023-01-18T05:14:26.304Z,92410.00
2023-01-18T05:15:26.253Z,92412.00
2023-01-18T05:16:26.254Z,92412.00
2023-01-18T05:17:26.154Z,92412.00
2023-01-18T05:18:26.103Z,92414.00
2023-01-18T05:19:26.043Z,92412.00
2023-01-18T05:20:25.995Z,92414.00
2023-01-18T05:21:25.953Z,92418.00
2023-01-18T05:22:25.969Z,92420.00
2023-01-18T05:23:25.856Z,92418.00
2023-01-18T05:24:27.651Z,92420.00
2023-01-18T05:25:25.765Z,92424.00
2023-01-18T05:26:25.709Z,92422.00
2023-01-18T05:27:25.680Z,92422.00
2023-01-18T05:28:25.605Z,92426.00
2023-01-18T05:29:25.561Z,92426.00
2023-01-18T05:30:25.501Z,92428.00
2023-01-18T05:31:25.510Z,92426.00
2023-01-18T05:32:25.402Z,92430.00
2023-01-18T05:33:25.349Z,92432.00
2023-01-18T05:34:25.305Z,92432.00
2023-01-18T05:35:25.255Z,92430.00
2023-01-18T05:36:25.202Z,92432.00
2023-01-18T05:37:25.153Z,92436.00
2023-01-18T05:38:25.104Z,92434.00
2023-01-18T05:39:25.051Z,92439.00
2023-01-18T05:40:25.007Z,92434.00
2023-01-18T05:41:24.956Z,92436.00
2023-01-18T05:42:24.917Z,92434.00
2023-01-18T05:43:24.875Z,92436.00
2023-01-18T05:44:24.785Z,92439.00
2023-01-18T05:45:24.733Z,92438.00
2023-01-18T05:46:24.692Z,92438.00
2023-01-18T05:47:24.636Z,92439.00
2023-01-18T05:48:24.597Z,92441.00
2023-01-18T05:49:24.526Z,92443.00
2023-01-18T05:50:24.469Z,92445.00
2023-01-18T05:51:24.424Z,92445.00
2023-01-18T05:52:25.084Z,92449.00
2023-01-18T05:53:24.321Z,92447.00
2023-01-18T05:54:24.273Z,92451.00
2023-01-18T05:55:24.221Z,92455.00
2023-01-18T05:56:24.172Z,92451.00
2023-01-18T05:57:24.120Z,92453.00
2023-01-18T05:58:24.061Z,92453.00
2023-01-18T05:59:24.039Z,92453.00
2023-01-18T06:00:23.963Z,92455.00
2023-01-18T06:01:23.986Z,92453.00
2023-01-18T06:02:23.867Z,92455.00
2023-01-18T06:03:23.809Z,92455.00
2023-01-18T06:04:23.844Z,92455.00
2023-01-18T06:05:23.716Z,92455.00
2023-01-18T06:06:23.665Z,92455.00
2023-01-18T06:07:23.605Z,92455.00
2023-01-18T06:08:23.581Z,92457.00
2023-01-18T06:09:23.519Z,92461.00
2023-01-18T06:10:23.494Z,92459.00
2023-01-18T06:11:23.410Z,92463.00
2023-01-18T06:12:23.359Z,92461.00
2023-01-18T06:13:23.321Z,92465.00
2023-01-18T06:14:23.256Z,92465.00
2023-01-18T06:15:23.229Z,92467.00
2023-01-18T06:16:23.203Z,92467.00
2023-01-18T06:17:23.292Z,92473.00
2023-01-18T06:18:23.040Z,92473.00
2023-01-18T06:19:22.998Z,92475.00
2023-01-18T06:20:22.947Z,92475.00
2023-01-18T06:21:22.886Z,92479.00
2023-01-18T06:22:22.864Z,92481.00
2023-01-18T06:23:22.784Z,92485.00
2023-01-18T06:24:23.089Z,92487.00
2023-01-18T06:25:22.672Z,92485.00
2023-01-18T06:26:22.619Z,92487.00
2023-01-18T06:27:22.565Z,92491.00
2023-01-18T06:28:22.530Z,92491.00
2023-01-18T06:29:22.469Z,92493.00
2023-01-18T06:30:23.093Z,92498.00
2023-01-18T06:31:22.427Z,92498.00
2023-01-18T06:32:22.304Z,92502.00
2023-01-18T06:33:22.252Z,92502.00
2023-01-18T06:34:22.204Z,92506.00
2023-01-18T06:35:22.150Z,92504.00
2023-01-18T06:36:22.597Z,92508.00
2023-01-18T06:37:22.039Z,92512.00
2023-01-18T06:38:21.996Z,92516.00
2023-01-18T06:39:22.153Z,92518.00
2023-01-18T06:40:21.877Z,92520.00
2023-01-18T06:41:21.820Z,92520.00
2023-01-18T06:42:21.757Z,92522.00
2023-01-18T06:43:22.108Z,92526.00
2023-01-18T06:44:21.650Z,92526.00
2023-01-18T06:45:21.591Z,92526.00
2023-01-18T06:46:21.706Z,92526.00
2023-01-18T06:47:21.570Z,92528.00
2023-01-18T06:48:21.424Z,92534.00
2023-01-18T06:49:21.605Z,92538.00
2023-01-18T06:50:21.304Z,92532.00
2023-01-18T06:51:21.251Z,92536.00
2023-01-18T06:52:21.208Z,92538.00
2023-01-18T06:53:22.098Z,92536.00
2023-01-18T06:54:21.132Z,92536.00
2023-01-18T06:55:21.029Z,92538.00
2023-01-18T06:56:20.953Z,92532.00
2023-01-18T06:57:21.132Z,92536.00
2023-01-18T06:58:20.842Z,92538.00
2023-01-18T06:59:20.784Z,92540.00
2023-01-18T07:00:20.732Z,92538.00
2023-01-18T07:01:20.814Z,92541.00
2023-01-18T07:02:20.623Z,92543.00
2023-01-18T07:03:20.630Z,92545.00
2023-01-18T07:04:21.524Z,92547.00
2023-01-18T07:05:20.457Z,92551.00
2023-01-18T07:06:20.913Z,92551.00
2023-01-18T07:07:20.612Z,92551.00
2023-01-18T07:08:20.659Z,92553.00
2023-01-18T07:09:20.210Z,92555.00
2023-01-18T07:10:20.156Z,92557.00
2023-01-18T07:11:20.105Z,92557.00
2023-01-18T07:12:20.051Z,92561.00
2023-01-18T07:13:20.191Z,92563.00
2023-01-18T07:14:19.967Z,92563.00
2023-01-18T07:15:22.726Z,92573.00
2023-01-18T07:16:20.098Z,92573.00
2023-01-18T07:17:19.813Z,92575.00
2023-01-18T07:18:20.146Z,92577.00
2023-01-18T07:19:19.776Z,92575.00
2023-01-18T07:20:19.802Z,92578.00
2023-01-18T07:21:19.594Z,92580.00
2023-01-18T07:22:19.556Z,92578.00
2023-01-18T07:23:19.649Z,92578.00
2023-01-18T07:24:20.045Z,92580.00
2023-01-18T07:25:19.397Z,92584.00
2023-01-18T07:26:19.891Z,92584.00
2023-01-18T07:27:19.701Z,92586.00
2023-01-18T07:28:19.655Z,92584.00
2023-01-18T07:29:19.198Z,92586.00
2023-01-18T07:30:19.156Z,92592.00
2023-01-18T07:31:20.539Z,92592.00
2023-01-18T07:32:19.242Z,92594.00
2023-01-18T07:33:19.594Z,92594.00
2023-01-18T07:34:19.226Z,92594.00
2023-01-18T07:35:19.221Z,92596.00
2023-01-18T07:36:18.815Z,92600.00
2023-01-18T07:37:18.762Z,92600.00
2023-01-18T07:38:19.730Z,92602.00
2023-01-18T07:39:19.113Z,92602.00
2023-01-18T07:40:18.609Z,92606.00
2023-01-18T07:41:18.563Z,92606.00
2023-01-18T07:42:18.646Z,92610.00
2023-01-18T07:43:18.459Z,92612.00
2023-01-18T07:44:18.783Z,92612.00
2023-01-18T07:45:18.635Z,92616.00
2023-01-18T07:46:18.357Z,92616.00
2023-01-18T07:47:18.416Z,92620.00
2023-01-18T07:48:18.758Z,92620.00
2023-01-18T07:49:18.156Z,92622.00
2023-01-18T07:50:18.274Z,92626.00
2023-01-18T07:51:18.470Z,92626.00
2023-01-18T07:52:18.198Z,92628.00
2023-01-18T07:53:17.952Z,92630.00
2023-01-18T07:54:17.927Z,92630.00
2023-01-18T07:55:17.892Z,92630.00
2023-01-18T07:56:18.174Z,92632.00
2023-01-18T07:57:18.216Z,92630.00
2023-01-18T07:58:17.717Z,92630.00
2023-01-18T07:59:17.792Z,92632.00
2023-01-18T08:00:17.842Z,92632.00
2023-01-18T08:01:17.809Z,92632.00
2023-01-18T08:02:17.734Z,92633.00
2023-01-18T08:03:17.639Z,92633.00
2023-01-18T08:04:17.568Z,92635.00
2023-01-18T08:05:17.421Z,92637.00
2023-01-18T08:06:17.706Z,92637.00
2023-01-18T08:07:17.311Z,92635.00
2023-01-18T08:08:24.644Z,92637.00
2023-01-18T08:09:17.184Z,92633.00
2023-01-18T08:10:17.140Z,92637.00
2023-01-18T08:11:17.163Z,92639.00
2023-01-18T08:12:17.119Z,92639.00
2023-01-18T08:13:17.320Z,92637.00
2023-01-18T08:14:17.369Z,92641.00
2023-01-18T08:15:16.905Z,92643.00
2023-01-18T08:16:16.857Z,92647.00
2023-01-18T08:17:16.849Z,92649.00
2023-01-18T08:18:16.724Z,92649.00
2023-01-18T08:19:17.227Z,92653.00
2023-01-18T08:20:16.613Z,92655.00
2023-01-18T08:21:16.813Z,92653.00
2023-01-18T08:22:16.497Z,92655.00
2023-01-18T08:23:16.498Z,92655.00
2023-01-18T08:24:16.427Z,92651.00
2023-01-18T08:25:16.388Z,92653.00
2023-01-18T08:26:16.353Z,92655.00
2023-01-18T08:27:16.672Z,92651.00
2023-01-18T08:28:16.241Z,92651.00
2023-01-18T08:29:16.177Z,92651.00
2023-01-18T08:30:16.130Z,92655.00
2023-01-18T08:31:16.222Z,92655.00
2023-01-18T08:32:16.056Z,92657.00
2023-01-18T08:33:16.027Z,92657.00
2023-01-18T08:34:15.957Z,92661.00
2023-01-18T08:35:15.910Z,92661.00
2023-01-18T08:36:16.184Z,92661.00
2023-01-18T08:37:16.126Z,92661.00
2023-01-18T08:38:15.760Z,92659.00
2023-01-18T08:39:15.752Z,92667.00
2023-01-18T08:40:15.668Z,92665.00
2023-01-18T08:41:15.609Z,92665.00
2023-01-18T08:42:15.652Z,92665.00
2023-01-18T08:43:15.525Z,92669.00
2023-01-18T08:44:15.457Z,92671.00
2023-01-18T08:45:15.405Z,92677.00
2023-01-18T08:46:15.407Z,92675.00
2023-01-18T08:47:15.681Z,92675.00
2023-01-18T08:48:15.257Z,92677.00
2023-01-18T08:49:15.191Z,92677.00
2023-01-18T08:50:15.152Z,92680.00
2023-01-18T08:51:15.113Z,92682.00
2023-01-18T08:52:15.137Z,92682.00
2023-01-18T08:53:15.495Z,92686.00
2023-01-18T08:54:18.647Z,92686.00
2023-01-18T08:55:14.815Z,92688.00
2023-01-18T08:56:14.783Z,92688.00
2023-01-18T08:57:15.242Z,92690.00
2023-01-18T08:58:14.627Z,92692.00
2023-01-18T08:59:14.693Z,92696.00
2023-01-18T09:00:14.565Z,92696.00
2023-01-18T09:01:14.583Z,92698.00
2023-01-18T09:02:14.744Z,92700.00
2023-01-18T09:03:14.721Z,92698.00
2023-01-18T09:04:14.474Z,92702.00
2023-01-18T09:05:14.333Z,92704.00
2023-01-18T09:06:14.271Z,92702.00
2023-01-18T09:07:14.209Z,92704.00
2023-01-18T09:08:15.683Z,92706.00
2023-01-18T09:09:14.223Z,92712.00
2023-01-18T09:10:14.283Z,92708.00
2023-01-18T09:11:14.136Z,92710.00
2023-01-18T09:12:14.172Z,92712.00
2023-01-18T09:13:14.034Z,92712.00
2023-01-18T09:14:14.249Z,92712.00
2023-01-18T09:15:13.940Z,92716.00
2023-01-18T09:16:14.267Z,92718.00
2023-01-18T09:17:13.865Z,92720.00
2023-01-18T09:18:13.837Z,92716.00
2023-01-18T09:19:14.245Z,92720.00
2023-01-18T09:20:13.755Z,92720.00
2023-01-18T09:21:13.735Z,92722.00
2023-01-18T09:22:14.243Z,92726.00
2023-01-18T09:23:13.663Z,92726.00
2023-01-18T09:24:13.641Z,92728.00
2023-01-18T09:25:13.599Z,92732.00
2023-01-18T09:26:14.592Z,92728.00
2023-01-18T09:27:13.714Z,92732.00
2023-01-18T09:28:13.956Z,92734.00
2023-01-18T09:29:13.427Z,92737.00
2023-01-18T09:30:13.359Z,92739.00
2023-01-18T09:31:13.327Z,92737.00
2023-01-18T09:32:13.740Z,92735.00
2023-01-18T09:33:36.941Z,92739.00
2023-01-18T09:34:19.207Z,92739.00
2023-01-18T09:35:13.112Z,92745.00
2023-01-18T09:36:13.057Z,92743.00
2023-01-18T09:37:13.272Z,92747.00
2023-01-18T09:38:12.960Z,92749.00
2023-01-18T09:39:12.885Z,92753.00
2023-01-18T09:40:16.043Z,92751.00
2023-01-18T09:41:14.832Z,92757.00
2023-01-18T09:42:12.769Z,92759.00
2023-01-18T09:43:12.711Z,92757.00
2023-01-18T09:44:12.577Z,92761.00
2023-01-18T09:45:12.608Z,92759.00
2023-01-18T09:46:12.559Z,92761.00
2023-01-18T09:47:12.751Z,92763.00
2023-01-18T09:48:13.194Z,92763.00
2023-01-18T09:49:12.325Z,92765.00
2023-01-18T09:50:12.270Z,92765.00
2023-01-18T09:51:12.228Z,92765.00
2023-01-18T09:52:12.171Z,92767.00
2023-01-18T09:53:12.214Z,92771.00
2023-01-18T09:54:12.045Z,92771.00
2023-01-18T09:55:11.992Z,92773.00
2023-01-18T09:56:11.975Z,92771.00
2023-01-18T09:57:11.885Z,92773.00
2023-01-18T09:58:11.849Z,92777.00
2023-01-18T09:59:13.281Z,92777.00
2023-01-18T10:00:11.759Z,92775.00
2023-01-18T10:01:11.796Z,92775.00
2023-01-18T10:02:11.815Z,92777.00
2023-01-18T10:03:11.696Z,92777.00
2023-01-18T10:04:11.511Z,92779.00
2023-01-18T10:05:11.700Z,92782.00
2023-01-18T10:06:11.411Z,92779.00
2023-01-18T10:07:11.331Z,92786.00
2023-01-18T10:08:11.670Z,92784.00
2023-01-18T10:09:11.175Z,92784.00
2023-01-18T10:10:11.146Z,92784.00
2023-01-18T10:11:11.107Z,92788.00
2023-01-18T10:12:11.012Z,92786.00
2023-01-18T10:13:11.198Z,92784.00
2023-01-18T10:14:10.939Z,92786.00
2023-01-18T10:15:10.847Z,92788.00
2023-01-18T10:16:10.785Z,92788.00
2023-01-18T10:17:10.702Z,92790.00
2023-01-18T10:18:11.203Z,92792.00
2023-01-18T10:19:10.574Z,92790.00
2023-01-18T10:20:10.715Z,92786.00
2023-01-18T10:21:10.443Z,92788.00
2023-01-18T10:22:10.365Z,92794.00
2023-01-18T10:23:10.305Z,92792.00
2023-01-18T10:24:10.229Z,92790.00
2023-01-18T10:25:10.241Z,92790.00
2023-01-18T10:26:10.159Z,92788.00
2023-01-18T10:27:10.034Z,92788.00
2023-01-18T10:28:10.226Z,92790.00
2023-01-18T10:29:09.901Z,92784.00
2023-01-18T10:30:09.956Z,92786.00
2023-01-18T10:31:09.834Z,92786.00
2023-01-18T10:32:09.714Z,92784.00
2023-01-18T10:33:09.663Z,92786.00
2023-01-18T10:34:09.681Z,92779.00
2023-01-18T10:35:09.592Z,92781.00
2023-01-18T10:36:11.693Z,92777.00
2023-01-18T10:37:09.509Z,92779.00
2023-01-18T10:38:09.466Z,92775.00
2023-01-18T10:39:09.468Z,92775.00
2023-01-18T10:40:09.419Z,92775.00
2023-01-18T10:41:09.695Z,92777.00
2023-01-18T10:42:09.343Z,92769.00
2023-01-18T10:43:09.310Z,92771.00
2023-01-18T10:44:09.402Z,92773.00
2023-01-18T10:45:09.706Z,92773.00
2023-01-18T10:46:09.255Z,92775.00
2023-01-18T10:47:09.143Z,92775.00
2023-01-18T10:48:09.095Z,92773.00
2023-01-18T10:49:09.083Z,92775.00
2023-01-18T10:50:09.706Z,92773.00
2023-01-18T10:51:09.213Z,92777.00
2023-01-18T10:52:08.893Z,92775.00
2023-01-18T10:53:08.838Z,92779.00
2023-01-18T10:54:08.824Z,92781.00
2023-01-18T10:55:08.731Z,92781.00
2023-01-18T10:56:09.183Z,92784.00
2023-01-18T10:57:10.091Z,92781.00
2023-01-18T10:58:08.771Z,92781.00
2023-01-18T10:59:08.697Z,92782.00
2023-01-18T11:00:08.459Z,92786.00
2023-01-18T11:01:08.496Z,92786.00
2023-01-18T11:02:08.556Z,92788.00
2023-01-18T11:03:10.096Z,92794.00
2023-01-18T11:04:08.699Z,92794.00
2023-01-18T11:05:08.132Z,92794.00
2023-01-18T11:06:08.091Z,92798.00
2023-01-18T11:07:08.007Z,92798.00
2023-01-18T11:08:07.934Z,92802.00
2023-01-18T11:09:08.185Z,92802.00
2023-01-18T11:10:07.818Z,92802.00
2023-01-18T11:11:07.745Z,92800.00
2023-01-18T11:12:07.714Z,92804.00
2023-01-18T11:13:09.614Z,92806.00
2023-01-18T11:14:07.711Z,92808.00
2023-01-18T11:15:07.488Z,92810.00
2023-01-18T11:16:07.478Z,92810.00
2023-01-18T11:17:07.352Z,92810.00
2023-01-18T11:18:07.315Z,92816.00
2023-01-18T11:19:07.779Z,92810.00
2023-01-18T11:20:07.149Z,92812.00
2023-01-18T11:21:07.068Z,92816.00
2023-01-18T11:22:06.993Z,92816.00
2023-01-18T11:23:06.929Z,92818.00
2023-01-18T11:24:07.191Z,92827.00
2023-01-18T11:25:07.198Z,92818.00
2023-01-18T11:26:06.708Z,92820.00
2023-01-18T11:27:06.645Z,92820.00
2023-01-18T11:28:06.549Z,92818.00
2023-01-18T11:29:06.728Z,92820.00
2023-01-18T11:30:08.196Z,92818.00
2023-01-18T11:31:06.346Z,92816.00
2023-01-18T11:32:06.278Z,92818.00
2023-01-18T11:33:06.168Z,92816.00
2023-01-18T11:34:06.221Z,92820.00
2023-01-18T11:35:06.011Z,92827.00
2023-01-18T11:36:05.942Z,92820.00
2023-01-18T11:37:05.858Z,92827.00
2023-01-18T11:38:05.972Z,92829.00
2023-01-18T11:39:06.199Z,92831.00
2023-01-18T11:40:06.108Z,92831.00
2023-01-18T11:41:05.554Z,92831.00
2023-01-18T11:42:05.471Z,92831.00
2023-01-18T11:43:05.390Z,92833.00
2023-01-18T11:44:05.328Z,92831.00
2023-01-18T11:45:05.234Z,92827.00
2023-01-18T11:46:05.185Z,92827.00
2023-01-18T11:47:05.091Z,92827.00
2023-01-18T11:48:05.027Z,92833.00
2023-01-18T11:49:04.955Z,92831.00
2023-01-18T11:50:16.947Z,92833.00
2023-01-18T11:51:05.210Z,92833.00
2023-01-18T11:52:04.758Z,92835.00
2023-01-18T11:53:04.699Z,92833.00
2023-01-18T11:54:04.643Z,92833.00
2023-01-18T11:55:04.583Z,92833.00
2023-01-18T11:56:04.521Z,92835.00
2023-01-18T11:57:04.455Z,92835.00
2023-01-18T11:58:04.394Z,92839.00
2023-01-18T11:59:04.333Z,92837.00
2023-01-18T12:00:04.735Z,92837.00
2023-01-18T12:01:04.294Z,92839.00
2023-01-18T12:02:04.240Z,92841.00
2023-01-18T12:03:04.222Z,92841.00
2023-01-18T12:04:04.213Z,92843.00
2023-01-18T12:05:04.023Z,92837.00
2023-01-18T12:06:04.269Z,92841.00
2023-01-18T12:07:04.094Z,92841.00
2023-01-18T12:08:04.206Z,92845.00
2023-01-18T12:09:03.833Z,92849.00
2023-01-18T12:10:04.243Z,92847.00
2023-01-18T12:11:03.691Z,92849.00
2023-01-18T12:12:17.941Z,92845.00
2023-01-18T12:13:03.773Z,92849.00
2023-01-18T12:14:03.567Z,92849.00
2023-01-18T12:15:03.758Z,92851.00
2023-01-18T12:16:03.435Z,92855.00
2023-01-18T12:17:03.367Z,92859.00
2023-01-18T12:18:12.992Z,92857.00
2023-01-18T12:19:03.907Z,92857.00
2023-01-18T12:20:03.260Z,92855.00
2023-01-18T12:21:03.119Z,92859.00
2023-01-18T12:22:03.084Z,92861.00
2023-01-18T12:23:03.012Z,92861.00
2023-01-18T12:24:02.934Z,92863.00
2023-01-18T12:25:03.249Z,92863.00
2023-01-18T12:26:11.651Z,92865.00
2023-01-18T12:27:02.743Z,92867.00
2023-01-18T12:28:02.706Z,92865.00
2023-01-18T12:29:02.619Z,92867.00
2023-01-18T12:30:02.573Z,92867.00
2023-01-18T12:31:02.522Z,92867.00
2023-01-18T12:32:02.428Z,92869.00
2023-01-18T12:33:02.380Z,92869.00
2023-01-18T12:34:02.294Z,92869.00
2023-01-18T12:35:04.940Z,92871.00
2023-01-18T12:36:02.131Z,92873.00
2023-01-18T12:37:02.250Z,92874.00
2023-01-18T12:38:02.392Z,92876.00
2023-01-18T12:39:01.933Z,92878.00
2023-01-18T12:40:01.851Z,92882.00
2023-01-18T12:41:01.781Z,92880.00
2023-01-18T12:42:01.711Z,92880.00
2023-01-18T12:43:01.739Z,92884.00
2023-01-18T12:44:01.588Z,92888.00
2023-01-18T12:45:01.506Z,92888.00
2023-01-18T12:46:01.483Z,92886.00
2023-01-18T12:47:01.368Z,92890.00
2023-01-18T12:48:01.657Z,92888.00
2023-01-18T12:49:01.227Z,92888.00
2023-01-18T12:50:01.156Z,92892.00
2023-01-18T12:51:01.083Z,92892.00
2023-01-18T12:52:17.812Z,92892.00
2023-01-18T12:53:01.466Z,92890.00
2023-01-18T12:54:00.946Z,92888.00
2023-01-18T12:55:00.860Z,92888.00
2023-01-18T12:56:03.868Z,92890.00
2023-01-18T12:57:00.718Z,92890.00
2023-01-18T12:58:01.104Z,92892.00
2023-01-18T12:59:00.610Z,92890.00
2023-01-18T13:00:00.559Z,92892.00
2023-01-18T13:01:00.656Z,92892.00
2023-01-18T13:02:00.514Z,92892.00
2023-01-18T13:03:00.763Z,92896.00
2023-01-18T13:04:00.332Z,92894.00
2023-01-18T13:05:00.283Z,92894.00
2023-01-18T13:06:00.422Z,92898.00
2023-01-18T13:07:01.198Z,92894.00
2023-01-18T13:08:00.760Z,92896.00
2023-01-18T13:09:00.071Z,92898.00
2023-01-18T13:10:00.067Z,92896.00
2023-01-18T13:10:59.988Z,92894.00
2023-01-18T13:11:59.931Z,92898.00
2023-01-18T13:13:00.230Z,92896.00
2023-01-18T13:13:59.857Z,92898.00
2023-01-18T13:14:59.813Z,92896.00
2023-01-18T13:15:59.824Z,92898.00
2023-01-18T13:17:00.234Z,92898.00
2023-01-18T13:18:00.201Z,92898.00
2023-01-18T13:18:59.717Z,92902.00
2023-01-18T13:19:59.691Z,92904.00
2023-01-18T13:20:59.658Z,92908.00
2023-01-18T13:21:59.645Z,92912.00
2023-01-18T13:22:59.733Z,92912.00
2023-01-18T13:23:59.580Z,92916.00
2023-01-18T13:24:59.553Z,92916.00
2023-01-18T13:25:59.549Z,92920.00
2023-01-18T13:26:59.487Z,92920.00
2023-01-18T13:27:59.811Z,92925.00
2023-01-18T13:28:59.406Z,92929.00
2023-01-18T13:29:59.360Z,92931.00
2023-01-18T13:31:01.559Z,92931.00
2023-01-18T13:31:59.271Z,92935.00
2023-01-18T13:32:59.225Z,92939.00
2023-01-18T13:33:59.165Z,92943.00
2023-01-18T13:35:18.082Z,92939.00
2023-01-18T13:35:59.056Z,92943.00
2023-01-18T13:37:13.416Z,92945.00
2023-01-18T13:38:00.018Z,92947.00
2023-01-18T13:38:58.880Z,92951.00
2023-01-18T13:39:58.815Z,92951.00
2023-01-18T13:40:58.761Z,92953.00
2023-01-18T13:41:58.715Z,92957.00
2023-01-18T13:42:58.639Z,92959.00
2023-01-18T13:43:58.744Z,92957.00
2023-01-18T13:44:58.522Z,92957.00
2023-01-18T13:45:58.490Z,92961.00
2023-01-18T13:46:58.394Z,92963.00
2023-01-18T13:47:58.726Z,92965.00
2023-01-18T13:48:58.260Z,92967.00
2023-01-18T13:49:58.206Z,92975.00
2023-01-18T13:50:58.149Z,92973.00
2023-01-18T13:51:58.247Z,92975.00
2023-01-18T13:52:58.379Z,92975.00
2023-01-18T13:53:57.926Z,92976.00
2023-01-18T13:54:57.863Z,92978.00
2023-01-18T13:55:58.272Z,92980.00
2023-01-18T13:56:57.727Z,92982.00
2023-01-18T13:57:58.131Z,92984.00
2023-01-18T13:58:57.600Z,92988.00
2023-01-18T13:59:57.542Z,92988.00
2023-01-18T14:00:57.827Z,92994.00
2023-01-18T14:01:57.428Z,92996.00
2023-01-18T14:02:57.536Z,93000.00
2023-01-18T14:03:57.450Z,93000.00
2023-01-18T14:04:57.181Z,93002.00
2023-01-18T14:05:57.810Z,93006.00
2023-01-18T14:06:57.251Z,93004.00
2023-01-18T14:07:57.005Z,93010.00
2023-01-18T14:08:57.747Z,93010.00
2023-01-18T14:09:56.856Z,93012.00
2023-01-18T14:10:56.795Z,93012.00
2023-01-18T14:11:56.726Z,93018.00
2023-01-18T14:12:57.167Z,93018.00
2023-01-18T14:13:56.628Z,93022.00
2023-01-18T14:14:56.671Z,93023.00
2023-01-18T14:15:55.550Z,93023.00
2023-01-18T14:16:56.751Z,93023.00
2023-01-18T14:17:58.814Z,93025.00
2023-01-18T14:18:56.286Z,93027.00
2023-01-18T14:19:56.220Z,93027.00
2023-01-18T14:20:56.158Z,93029.00
2023-01-18T14:21:56.100Z,93033.00
2023-01-18T14:22:56.078Z,93033.00
2023-01-18T14:23:55.975Z,93035.00
2023-01-18T14:24:55.940Z,93035.00
2023-01-18T14:25:55.868Z,93035.00
2023-01-18T14:26:55.797Z,93039.00
2023-01-18T14:27:56.389Z,93037.00
2023-01-18T14:28:56.266Z,93041.00
2023-01-18T14:29:55.657Z,93041.00
2023-01-18T14:30:55.602Z,93043.00
2023-01-18T14:31:55.518Z,93047.00
2023-01-18T14:32:55.476Z,93049.00
2023-01-18T14:33:55.442Z,93051.00
2023-01-18T14:34:55.986Z,93055.00
2023-01-18T14:35:55.347Z,93053.00
2023-01-18T14:36:55.228Z,93055.00
2023-01-18T14:37:57.467Z,93059.00
2023-01-18T14:38:55.069Z,93059.00
2023-01-18T14:39:55.018Z,93065.00
2023-01-18T14:40:54.944Z,93065.00
2023-01-18T14:41:54.885Z,93063.00
2023-01-18T14:42:55.362Z,93067.00
2023-01-18T14:43:54.762Z,93065.00